Time,TemperatureF,DewpointF,PressureIn,WindDirection,WindDirectionDegrees,WindSpeedMPH,WindSpeedGustMPH,Humidity,HourlyPrecipIn,Conditions,Clouds,dailyrainin,SoftwareType,DateUTC
2013-02-10 00:04:00,37.0,33.7,29.62,SSE,158,1.7,6.4,88,0.00,,,0.00,WUHU216HW,2013-02-10 06:04:00,
2013-02-10 00:09:00,37.0,33.7,29.62,SE,135,0.0,6.4,88,0.00,,,0.00,WUHU216HW,2013-02-10 06:09:00,
2013-02-10 00:14:00,37.0,33.7,29.62,SSE,158,1.3,2.2,88,0.00,,,0.00,WUHU216HW,2013-02-10 06:14:00,
2013-02-10 00:19:00,37.0,33.7,29.62,SE,135,0.0,2.6,88,0.00,,,0.00,WUHU216HW,2013-02-10 06:19:00,
2013-02-10 00:24:00,37.0,33.7,29.62,SE,135,0.0,2.6,88,0.00,,,0.00,WUHU216HW,2013-02-10 06:24:00,
2013-02-10 00:29:00,37.0,33.7,29.61,SSE,158,0.0,5.3,88,0.00,,,0.00,WUHU216HW,2013-02-10 06:29:00,
2013-02-10 00:35:00,37.0,33.7,29.61,SE,135,0.0,5.3,88,0.00,,,0.00,WUHU216HW,2013-02-10 06:35:00,
2013-02-10 00:40:00,37.0,33.7,29.61,SE,135,2.0,6.7,88,0.00,,,0.00,WUHU216HW,2013-02-10 06:40:00,
2013-02-10 00:45:00,37.0,33.7,29.61,SE,135,1.7,6.7,88,0.00,,,0.00,WUHU216HW,2013-02-10 06:45:00,
2013-02-10 00:50:00,37.2,33.9,29.61,SE,135,2.4,5.3,88,0.00,,,0.00,WUHU216HW,2013-02-10 06:50:00,
2013-02-10 00:55:00,37.0,33.7,29.60,SSE,158,4.6,5.5,88,0.00,,,0.00,WUHU216HW,2013-02-10 06:55:00,
2013-02-10 01:00:00,37.0,33.7,29.61,SE,135,3.5,14.7,88,0.00,,,0.00,WUHU216HW,2013-02-10 07:00:00,
2013-02-10 01:05:00,37.0,33.7,29.60,SSE,158,1.1,8.5,88,0.00,,,0.00,WUHU216HW,2013-02-10 07:05:00,
2013-02-10 01:10:00,37.0,34.0,29.59,SSE,158,2.9,7.1,89,0.00,,,0.00,WUHU216HW,2013-02-10 07:10:00,
2013-02-10 01:15:00,37.0,34.0,29.59,SSE,158,5.3,9.8,89,0.00,,,0.00,WUHU216HW,2013-02-10 07:15:00,
2013-02-10 01:20:00,36.8,33.8,29.59,SSE,158,5.1,9.8,89,0.00,,,0.00,WUHU216HW,2013-02-10 07:20:00,
2013-02-10 01:25:00,36.6,33.6,29.59,SSE,158,6.2,7.6,89,0.00,,,0.00,WUHU216HW,2013-02-10 07:25:00,
2013-02-10 01:30:00,36.6,33.6,29.59,SSE,158,1.3,7.6,89,0.00,,,0.00,WUHU216HW,2013-02-10 07:30:00,
2013-02-10 01:35:00,36.6,33.9,29.58,SE,135,6.2,10.9,90,0.00,,,0.00,WUHU216HW,2013-02-10 07:35:00,
2013-02-10 01:40:00,36.6,33.9,29.56,SSE,158,5.1,10.9,90,0.00,,,0.00,WUHU216HW,2013-02-10 07:40:00,
2013-02-10 01:45:00,36.6,33.9,29.56,SE,135,6.2,7.3,90,0.00,,,0.00,WUHU216HW,2013-02-10 07:45:00,
2013-02-10 01:50:00,36.6,33.9,29.56,SSE,158,4.2,7.1,90,0.00,,,0.00,WUHU216HW,2013-02-10 07:50:00,
2013-02-10 01:55:00,36.6,33.9,29.55,SE,135,1.5,7.6,90,0.00,,,0.00,WUHU216HW,2013-02-10 07:55:00,
2013-02-10 02:00:00,36.6,33.9,29.55,SSE,158,2.0,7.6,90,0.00,,,0.00,WUHU216HW,2013-02-10 08:00:00,
2013-02-10 02:06:00,36.6,33.9,29.56,SE,135,4.2,8.7,90,0.00,,,0.00,WUHU216HW,2013-02-10 08:06:00,
2013-02-10 02:11:00,36.6,33.9,29.54,SE,135,4.6,8.7,90,0.00,,,0.00,WUHU216HW,2013-02-10 08:11:00,
2013-02-10 02:16:00,36.6,33.9,29.53,SE,135,8.9,8.9,90,0.00,,,0.00,WUHU216HW,2013-02-10 08:16:00,
2013-02-10 02:21:00,36.5,33.8,29.54,SE,135,4.9,8.9,90,0.00,,,0.00,WUHU216HW,2013-02-10 08:21:00,
2013-02-10 02:26:00,36.6,33.9,29.53,SSE,158,6.7,8.9,90,0.00,,,0.00,WUHU216HW,2013-02-10 08:26:00,
2013-02-10 02:31:00,36.5,34.0,29.53,SE,135,4.9,8.2,91,0.00,,,0.00,WUHU216HW,2013-02-10 08:31:00,
2013-02-10 02:36:00,36.5,34.0,29.52,SE,135,5.1,8.5,91,0.00,,,0.00,WUHU216HW,2013-02-10 08:36:00,
2013-02-10 02:41:00,36.5,34.0,29.52,SSE,158,6.0,8.5,91,0.00,,,0.00,WUHU216HW,2013-02-10 08:41:00,
2013-02-10 02:46:00,36.6,34.2,29.54,SE,135,6.7,10.5,91,0.00,,,0.00,WUHU216HW,2013-02-10 08:46:00,
2013-02-10 02:51:00,36.6,34.2,29.52,SE,135,5.3,10.5,91,0.00,,,0.00,WUHU216HW,2013-02-10 08:51:00,
2013-02-10 02:56:00,36.6,34.2,29.51,SSE,158,4.6,8.5,91,0.00,,,0.00,WUHU216HW,2013-02-10 08:56:00,
2013-02-10 03:01:00,36.6,34.2,29.50,SSE,158,6.0,9.8,91,0.00,,,0.00,WUHU216HW,2013-02-10 09:01:00,
2013-02-10 03:06:00,36.6,34.2,29.50,SSE,158,9.6,9.8,91,0.00,,,0.00,WUHU216HW,2013-02-10 09:06:00,
2013-02-10 03:11:00,36.6,34.2,29.49,SSE,158,8.2,9.6,91,0.00,,,0.00,WUHU216HW,2013-02-10 09:11:00,
2013-02-10 03:16:00,36.6,34.2,29.48,ESE,113,3.3,9.6,91,0.00,,,0.00,WUHU216HW,2013-02-10 09:16:00,
2013-02-10 03:21:00,36.6,34.2,29.47,SSE,158,2.2,8.2,91,0.00,,,0.00,WUHU216HW,2013-02-10 09:21:00,
2013-02-10 03:26:00,36.6,34.2,29.45,SE,135,1.1,5.8,91,0.00,,,0.00,WUHU216HW,2013-02-10 09:26:00,
2013-02-10 03:32:00,36.6,34.2,29.44,SSE,158,2.0,5.8,91,0.00,,,0.00,WUHU216HW,2013-02-10 09:32:00,
2013-02-10 03:37:00,37.0,34.8,29.43,SSE,158,8.7,8.7,92,0.00,,,0.00,WUHU216HW,2013-02-10 09:37:00,
2013-02-10 03:42:00,37.0,34.8,29.44,SE,135,7.3,9.6,92,0.00,,,0.00,WUHU216HW,2013-02-10 09:42:00,
2013-02-10 03:47:00,37.0,34.8,29.42,SE,135,10.5,10.5,92,0.00,,,0.00,WUHU216HW,2013-02-10 09:47:00,
2013-02-10 03:52:00,37.0,34.8,29.41,SSE,158,10.5,10.5,92,0.00,,,0.00,WUHU216HW,2013-02-10 09:52:00,
2013-02-10 03:57:00,37.0,34.8,29.42,SE,135,4.0,10.5,92,0.00,,,0.00,WUHU216HW,2013-02-10 09:57:00,
2013-02-10 04:02:00,37.2,35.0,29.42,SSE,158,7.3,11.1,92,0.00,,,0.00,WUHU216HW,2013-02-10 10:02:00,
2013-02-10 04:07:00,37.2,35.0,29.43,SE,135,10.7,11.6,92,0.00,,,0.00,WUHU216HW,2013-02-10 10:07:00,
2013-02-10 04:12:00,37.4,35.2,29.43,SSE,158,8.7,12.3,92,0.00,,,0.00,WUHU216HW,2013-02-10 10:12:00,
2013-02-10 04:17:00,37.5,35.4,29.43,SE,135,8.2,12.3,92,0.00,,,0.00,WUHU216HW,2013-02-10 10:17:00,
2013-02-10 04:22:00,37.5,35.4,29.42,SSE,158,7.1,12.0,92,0.00,,,0.00,WUHU216HW,2013-02-10 10:22:00,
2013-02-10 04:27:00,37.5,35.4,29.42,SSE,158,5.5,10.5,92,0.00,,,0.00,WUHU216HW,2013-02-10 10:27:00,
2013-02-10 04:32:00,37.5,35.4,29.40,SSE,158,4.9,10.5,92,0.00,,,0.00,WUHU216HW,2013-02-10 10:32:00,
2013-02-10 04:37:00,37.7,35.6,29.40,ESE,113,3.8,9.3,92,0.00,,,0.00,WUHU216HW,2013-02-10 10:37:00,
2013-02-10 04:42:00,37.7,35.6,29.40,SSE,158,5.8,9.3,92,0.00,,,0.00,WUHU216HW,2013-02-10 10:42:00,
2013-02-10 04:47:00,37.9,35.7,29.41,SSE,158,0.8,7.6,92,0.00,,,0.00,WUHU216HW,2013-02-10 10:47:00,
2013-02-10 04:52:00,37.9,35.7,29.40,SSE,158,1.7,7.6,92,0.00,,,0.00,WUHU216HW,2013-02-10 10:52:00,
2013-02-10 04:57:00,38.1,35.9,29.40,SSE,158,1.3,5.3,92,0.00,,,0.00,WUHU216HW,2013-02-10 10:57:00,
2013-02-10 05:03:00,38.1,35.9,29.39,SSE,158,4.9,6.7,92,0.00,,,0.00,WUHU216HW,2013-02-10 11:03:00,
2013-02-10 05:08:00,38.1,35.9,29.39,SSE,158,2.2,6.7,92,0.02,,,0.02,WUHU216HW,2013-02-10 11:08:00,
2013-02-10 05:13:00,38.3,36.1,29.39,SSE,158,0.0,5.5,92,0.02,,,0.02,WUHU216HW,2013-02-10 11:13:00,
2013-02-10 05:18:00,38.3,36.1,29.38,SE,135,0.6,2.2,92,0.02,,,0.02,WUHU216HW,2013-02-10 11:18:00,
2013-02-10 05:23:00,38.4,36.3,29.37,SSE,158,4.4,4.4,92,0.02,,,0.02,WUHU216HW,2013-02-10 11:23:00,
2013-02-10 05:28:00,38.4,36.3,29.37,SSE,158,0.0,4.4,92,0.02,,,0.02,WUHU216HW,2013-02-10 11:28:00,
2013-02-10 05:33:00,38.6,36.5,29.36,SSE,158,3.5,4.4,93,0.02,,,0.02,WUHU216HW,2013-02-10 11:33:00,
2013-02-10 05:38:00,38.6,36.5,29.36,ESE,113,0.0,3.5,93,0.02,,,0.02,WUHU216HW,2013-02-10 11:38:00,
2013-02-10 05:43:00,38.8,36.9,29.37,South,180,0.0,5.3,93,0.02,,,0.02,WUHU216HW,2013-02-10 11:43:00,
2013-02-10 05:48:00,38.8,36.9,29.37,SE,135,0.0,5.3,93,0.02,,,0.02,WUHU216HW,2013-02-10 11:48:00,
2013-02-10 05:53:00,38.8,36.9,29.37,SSE,158,3.3,7.3,93,0.02,,,0.02,WUHU216HW,2013-02-10 11:53:00,
2013-02-10 05:58:00,39.0,37.1,29.37,SSE,158,0.6,7.3,93,0.02,,,0.02,WUHU216HW,2013-02-10 11:58:00,
2013-02-10 06:03:00,39.0,37.1,29.36,SSE,158,0.0,5.8,93,0.02,,,0.02,WUHU216HW,2013-02-10 12:03:00,
2013-02-10 06:08:00,39.0,37.1,29.36,SSE,158,0.0,3.3,93,0.02,,,0.02,WUHU216HW,2013-02-10 12:08:00,
2013-02-10 06:13:00,39.0,37.1,29.36,SE,135,0.0,1.5,93,0.02,,,0.02,WUHU216HW,2013-02-10 12:13:00,
2013-02-10 06:18:00,39.2,37.3,29.35,SE,135,0.0,1.5,93,0.02,,,0.02,WUHU216HW,2013-02-10 12:18:00,
2013-02-10 06:23:00,39.2,37.3,29.34,SSE,158,0.2,4.4,93,0.02,,,0.02,WUHU216HW,2013-02-10 12:23:00,
2013-02-10 06:29:00,39.2,37.3,29.34,SE,135,0.0,4.4,93,0.02,,,0.02,WUHU216HW,2013-02-10 12:29:00,
2013-02-10 06:34:00,39.2,37.3,29.35,SE,135,4.2,4.2,93,0.02,,,0.02,WUHU216HW,2013-02-10 12:34:00,
2013-02-10 06:39:00,39.2,37.3,29.34,SSE,158,0.4,5.8,93,0.02,,,0.02,WUHU216HW,2013-02-10 12:39:00,
2013-02-10 06:44:00,39.3,37.4,29.34,SE,135,0.0,5.8,93,0.02,,,0.02,WUHU216HW,2013-02-10 12:44:00,
2013-02-10 06:49:00,39.3,37.4,29.33,SSE,158,2.0,6.2,93,0.02,,,0.02,WUHU216HW,2013-02-10 12:49:00,
2013-02-10 06:54:00,39.3,37.4,29.34,SSE,158,0.0,6.2,93,0.02,,,0.02,WUHU216HW,2013-02-10 12:54:00,
2013-02-10 06:59:00,39.5,37.6,29.33,SE,135,0.8,7.8,93,0.00,,,0.02,WUHU216HW,2013-02-10 12:59:00,
2013-02-10 07:04:00,39.5,37.6,29.32,SE,135,0.4,8.7,93,0.00,,,0.02,WUHU216HW,2013-02-10 13:04:00,
2013-02-10 07:09:00,39.7,37.8,29.32,SSE,158,1.1,3.3,93,0.00,,,0.02,WUHU216HW,2013-02-10 13:09:00,
2013-02-10 07:14:00,39.7,37.8,29.32,SSE,158,4.4,6.4,93,0.00,,,0.02,WUHU216HW,2013-02-10 13:14:00,
2013-02-10 07:19:00,39.9,38.0,29.31,SE,135,5.5,6.4,93,0.00,,,0.02,WUHU216HW,2013-02-10 13:19:00,
2013-02-10 07:24:00,39.7,37.8,29.31,SE,135,2.6,5.5,93,0.00,,,0.02,WUHU216HW,2013-02-10 13:24:00,
2013-02-10 07:29:00,39.9,38.0,29.30,SSE,158,4.9,6.4,93,0.00,,,0.02,WUHU216HW,2013-02-10 13:29:00,
2013-02-10 07:34:00,39.9,38.0,29.30,SSE,158,2.4,7.1,93,0.00,,,0.02,WUHU216HW,2013-02-10 13:34:00,
2013-02-10 07:39:00,40.1,38.2,29.29,SSE,158,8.7,11.4,93,0.00,,,0.02,WUHU216HW,2013-02-10 13:39:00,
2013-02-10 07:44:00,40.1,38.2,29.29,SSE,158,2.6,11.4,93,0.00,,,0.02,WUHU216HW,2013-02-10 13:44:00,
2013-02-10 07:49:00,40.1,38.2,29.29,SSE,158,4.9,10.7,93,0.00,,,0.02,WUHU216HW,2013-02-10 13:49:00,
2013-02-10 07:55:00,40.2,38.3,29.29,SSE,158,4.4,10.7,93,0.00,,,0.02,WUHU216HW,2013-02-10 13:55:00,
2013-02-10 08:00:00,40.2,38.3,29.29,SSE,158,3.5,11.4,93,0.00,,,0.02,WUHU216HW,2013-02-10 14:00:00,
2013-02-10 08:05:00,40.6,38.7,29.29,SE,135,6.9,11.4,93,0.00,,,0.02,WUHU216HW,2013-02-10 14:05:00,
2013-02-10 08:10:00,40.8,38.9,29.29,SE,135,10.5,12.9,93,0.00,,,0.02,WUHU216HW,2013-02-10 14:10:00,
2013-02-10 08:15:00,41.0,39.1,29.29,SSE,158,8.7,12.9,93,0.00,,,0.02,WUHU216HW,2013-02-10 14:15:00,
2013-02-10 08:20:00,41.1,39.2,29.28,SSE,158,6.2,11.1,93,0.00,,,0.02,WUHU216HW,2013-02-10 14:20:00,
2013-02-10 08:25:00,41.3,39.4,29.28,SSE,158,7.1,9.6,93,0.00,,,0.02,WUHU216HW,2013-02-10 14:25:00,
2013-02-10 08:30:00,41.5,39.3,29.28,SSE,158,8.7,11.1,92,0.00,,,0.02,WUHU216HW,2013-02-10 14:30:00,
2013-02-10 08:35:00,41.7,39.5,29.28,SSE,158,10.0,11.1,92,0.00,,,0.02,WUHU216HW,2013-02-10 14:35:00,
2013-02-10 08:40:00,41.7,39.2,29.28,South,180,9.8,12.0,91,0.00,,,0.02,WUHU216HW,2013-02-10 14:40:00,
2013-02-10 08:45:00,41.7,38.7,29.28,South,180,13.4,13.4,89,0.00,,,0.02,WUHU216HW,2013-02-10 14:45:00,
2013-02-10 08:50:00,41.7,38.1,29.27,SSE,158,6.2,15.4,87,0.00,,,0.02,WUHU216HW,2013-02-10 14:50:00,
2013-02-10 08:55:00,41.7,37.7,29.27,South,180,11.4,15.4,86,0.00,,,0.02,WUHU216HW,2013-02-10 14:55:00,
2013-02-10 09:00:00,41.7,37.7,29.27,South,180,9.3,12.0,86,0.00,,,0.02,WUHU216HW,2013-02-10 15:00:00,
2013-02-10 09:05:00,41.7,37.7,29.27,South,180,1.1,11.4,86,0.00,,,0.02,WUHU216HW,2013-02-10 15:05:00,
2013-02-10 09:10:00,41.3,36.5,29.27,SSE,158,8.9,10.9,83,0.00,,,0.02,WUHU216HW,2013-02-10 15:10:00,
2013-02-10 09:16:00,40.8,35.6,29.27,SSW,203,8.5,12.9,82,0.00,,,0.02,WUHU216HW,2013-02-10 15:16:00,
2013-02-10 09:21:00,40.6,35.2,29.27,South,180,9.3,12.9,81,0.00,,,0.02,WUHU216HW,2013-02-10 15:21:00,
2013-02-10 09:26:00,40.1,35.0,29.27,SSW,203,9.6,10.9,82,0.00,,,0.02,WUHU216HW,2013-02-10 15:26:00,
2013-02-10 09:31:00,39.7,34.6,29.27,SSE,158,5.5,11.1,82,0.00,,,0.02,WUHU216HW,2013-02-10 15:31:00,
2013-02-10 09:36:00,39.5,34.5,29.27,South,180,5.1,11.1,82,0.00,,,0.02,WUHU216HW,2013-02-10 15:36:00,
2013-02-10 09:41:00,39.0,34.3,29.27,South,180,3.3,11.1,83,0.00,,,0.02,WUHU216HW,2013-02-10 15:41:00,
2013-02-10 09:46:00,38.8,34.1,29.27,South,180,9.3,9.3,83,0.00,,,0.02,WUHU216HW,2013-02-10 15:46:00,
2013-02-10 09:51:00,38.1,33.4,29.27,SSW,203,6.7,9.3,83,0.00,,,0.02,WUHU216HW,2013-02-10 15:51:00,
2013-02-10 09:56:00,37.7,33.0,29.28,SSW,203,5.3,8.7,83,0.00,,,0.02,WUHU216HW,2013-02-10 15:56:00,
2013-02-10 10:01:00,37.5,32.8,29.27,South,180,8.2,10.0,83,0.00,,,0.02,WUHU216HW,2013-02-10 16:01:00,
2013-02-10 10:06:00,37.2,32.5,29.27,South,180,3.1,10.0,83,0.00,,,0.02,WUHU216HW,2013-02-10 16:06:00,
2013-02-10 10:11:00,37.0,32.6,29.27,South,180,0.6,9.1,84,0.00,,,0.02,WUHU216HW,2013-02-10 16:11:00,
2013-02-10 10:16:00,37.0,32.3,29.27,South,180,2.0,12.9,83,0.00,,,0.02,WUHU216HW,2013-02-10 16:16:00,
2013-02-10 10:21:00,36.6,31.9,29.27,South,180,9.1,12.9,83,0.00,,,0.02,WUHU216HW,2013-02-10 16:21:00,
2013-02-10 10:26:00,36.6,31.9,29.26,SSW,203,7.6,9.1,83,0.00,,,0.02,WUHU216HW,2013-02-10 16:26:00,
2013-02-10 10:31:00,36.6,31.9,29.26,SSE,158,3.3,9.1,84,0.00,,,0.02,WUHU216HW,2013-02-10 16:31:00,
2013-02-10 10:36:00,36.5,32.0,29.27,South,180,0.6,7.6,84,0.00,,,0.02,WUHU216HW,2013-02-10 16:36:00,
2013-02-10 10:41:00,36.5,31.7,29.27,SSE,158,3.3,7.1,83,0.00,,,0.02,WUHU216HW,2013-02-10 16:41:00,
2013-02-10 10:47:00,36.5,31.7,29.27,SSW,203,3.1,7.3,83,0.00,,,0.02,WUHU216HW,2013-02-10 16:47:00,
2013-02-10 10:52:00,36.5,31.7,29.27,SW,225,1.5,7.3,83,0.00,,,0.02,WUHU216HW,2013-02-10 16:52:00,
2013-02-10 10:57:00,36.5,31.7,29.27,South,180,0.0,3.1,83,0.00,,,0.02,WUHU216HW,2013-02-10 16:57:00,
2013-02-10 11:02:00,36.6,31.6,29.27,WNW,293,0.2,10.0,82,0.00,,,0.02,WUHU216HW,2013-02-10 17:02:00,
2013-02-10 11:07:00,36.6,31.6,29.27,SW,225,0.4,10.0,82,0.00,,,0.02,WUHU216HW,2013-02-10 17:07:00,
2013-02-10 11:12:00,36.5,31.4,29.28,South,180,4.4,11.4,82,0.00,,,0.02,WUHU216HW,2013-02-10 17:12:00,
2013-02-10 11:17:00,36.6,31.6,29.28,SSE,158,2.0,11.4,82,0.00,,,0.02,WUHU216HW,2013-02-10 17:17:00,
2013-02-10 11:22:00,36.5,31.7,29.28,SSW,203,0.0,9.6,83,0.00,,,0.02,WUHU216HW,2013-02-10 17:22:00,
2013-02-10 11:27:00,36.3,31.3,29.28,South,180,2.0,6.4,82,0.00,,,0.02,WUHU216HW,2013-02-10 17:27:00,
2013-02-10 11:32:00,36.5,31.7,29.28,South,180,4.0,6.9,83,0.00,,,0.02,WUHU216HW,2013-02-10 17:32:00,
2013-02-10 11:37:00,36.5,31.7,29.28,SW,225,0.0,6.9,83,0.00,,,0.02,WUHU216HW,2013-02-10 17:37:00,
2013-02-10 11:42:00,36.5,31.7,29.28,South,180,4.0,7.3,83,0.00,,,0.02,WUHU216HW,2013-02-10 17:42:00,
2013-02-10 11:47:00,36.3,31.6,29.28,SW,225,0.0,7.3,83,0.00,,,0.02,WUHU216HW,2013-02-10 17:47:00,
2013-02-10 11:52:00,36.3,31.6,29.28,SW,225,0.8,4.2,83,0.00,,,0.02,WUHU216HW,2013-02-10 17:52:00,
2013-02-10 11:57:00,36.3,31.6,29.28,WSW,248,0.0,2.9,83,0.00,,,0.02,WUHU216HW,2013-02-10 17:57:00,
2013-02-10 12:02:00,36.3,31.6,29.28,SSW,203,2.6,6.0,83,0.00,,,0.02,WUHU216HW,2013-02-10 18:02:00,
2013-02-10 12:07:00,36.3,31.6,29.28,SSE,158,0.0,6.0,83,0.00,,,0.02,WUHU216HW,2013-02-10 18:07:00,
2013-02-10 12:12:00,36.3,31.6,29.27,South,180,0.0,3.1,83,0.00,,,0.02,WUHU216HW,2013-02-10 18:12:00,
2013-02-10 12:18:00,36.5,32.0,29.27,SSW,203,0.8,6.7,84,0.00,,,0.02,WUHU216HW,2013-02-10 18:18:00,
2013-02-10 12:23:00,36.6,32.2,29.27,SSW,203,0.0,6.7,84,0.00,,,0.02,WUHU216HW,2013-02-10 18:23:00,
2013-02-10 12:28:00,36.6,32.2,29.27,SSW,203,0.0,1.1,84,0.00,,,0.02,WUHU216HW,2013-02-10 18:28:00,
2013-02-10 12:33:00,36.6,32.2,29.27,SW,225,3.5,3.5,84,0.00,,,0.02,WUHU216HW,2013-02-10 18:33:00,
2013-02-10 12:38:00,36.8,32.4,29.27,SSW,203,0.0,3.5,84,0.00,,,0.02,WUHU216HW,2013-02-10 18:38:00,
2013-02-10 12:43:00,37.0,32.6,29.27,SW,225,0.0,3.5,84,0.00,,,0.02,WUHU216HW,2013-02-10 18:43:00,
2013-02-10 12:48:00,37.0,32.6,29.27,South,180,0.0,2.9,84,0.00,,,0.02,WUHU216HW,2013-02-10 18:48:00,
2013-02-10 12:53:00,37.0,32.6,29.27,South,180,0.0,2.9,85,0.00,,,0.02,WUHU216HW,2013-02-10 18:53:00,
2013-02-10 12:58:00,37.0,32.6,29.27,South,180,0.8,0.8,85,0.00,,,0.02,WUHU216HW,2013-02-10 18:58:00,
2013-02-10 13:03:00,37.0,32.6,29.27,SSW,203,0.0,0.8,85,0.00,,,0.02,WUHU216HW,2013-02-10 19:03:00,
2013-02-10 13:08:00,37.0,32.6,29.28,WSW,248,0.0,2.4,86,0.00,,,0.02,WUHU216HW,2013-02-10 19:08:00,
2013-02-10 13:13:00,37.2,33.3,29.28,WSW,248,0.0,2.4,86,0.00,,,0.02,WUHU216HW,2013-02-10 19:13:00,
2013-02-10 13:18:00,37.2,33.3,29.28,SW,225,0.0,1.1,86,0.00,,,0.02,WUHU216HW,2013-02-10 19:18:00,
2013-02-10 13:23:00,37.4,33.8,29.28,WNW,293,1.3,1.7,87,0.00,,,0.02,WUHU216HW,2013-02-10 19:23:00,
2013-02-10 13:28:00,37.5,34.0,29.28,WSW,248,7.1,7.1,87,0.00,,,0.02,WUHU216HW,2013-02-10 19:28:00,
2013-02-10 13:33:00,37.5,34.0,29.28,WNW,293,5.8,9.8,87,0.00,,,0.02,WUHU216HW,2013-02-10 19:33:00,
2013-02-10 13:38:00,37.7,34.1,29.29,North,0,8.9,13.6,87,0.00,,,0.02,WUHU216HW,2013-02-10 19:38:00,
2013-02-10 13:43:00,37.5,34.3,29.29,NW,315,10.9,13.6,88,0.00,,,0.02,WUHU216HW,2013-02-10 19:43:00,
2013-02-10 13:49:00,37.5,34.3,29.30,NW,315,8.7,10.9,88,0.00,,,0.02,WUHU216HW,2013-02-10 19:49:00,
2013-02-10 13:54:00,37.2,33.9,29.30,WNW,293,11.1,11.1,88,0.00,,,0.02,WUHU216HW,2013-02-10 19:54:00,
2013-02-10 13:59:00,37.2,33.9,29.30,WNW,293,6.9,11.1,88,0.00,,,0.02,WUHU216HW,2013-02-10 19:59:00,
2013-02-10 14:04:00,37.4,33.8,29.31,NW,315,6.4,11.1,87,0.00,,,0.02,WUHU216HW,2013-02-10 20:04:00,
2013-02-10 14:09:00,37.4,33.5,29.31,NNW,338,7.3,12.9,86,0.00,,,0.02,WUHU216HW,2013-02-10 20:09:00,
2013-02-10 14:14:00,37.4,33.2,29.31,NW,315,9.6,12.9,85,0.00,,,0.02,WUHU216HW,2013-02-10 20:14:00,
2013-02-10 14:19:00,37.2,32.7,29.32,NNW,338,8.7,13.8,84,0.00,,,0.02,WUHU216HW,2013-02-10 20:19:00,
2013-02-10 14:24:00,37.2,32.7,29.33,NW,315,9.1,13.8,84,0.00,,,0.02,WUHU216HW,2013-02-10 20:24:00,
2013-02-10 14:29:00,37.2,32.7,29.33,NW,315,12.9,12.9,84,0.00,,,0.02,WUHU216HW,2013-02-10 20:29:00,
2013-02-10 14:34:00,37.0,32.6,29.34,WNW,293,10.0,12.9,84,0.00,,,0.02,WUHU216HW,2013-02-10 20:34:00,
2013-02-10 14:39:00,36.6,31.9,29.35,West,270,8.0,12.9,83,0.00,,,0.02,WUHU216HW,2013-02-10 20:39:00,
2013-02-10 14:44:00,36.3,31.8,29.35,WNW,293,10.7,11.8,84,0.00,,,0.02,WUHU216HW,2013-02-10 20:44:00,
2013-02-10 14:49:00,35.9,31.2,29.36,WNW,293,10.5,12.0,83,0.00,,,0.02,WUHU216HW,2013-02-10 20:49:00,
2013-02-10 14:54:00,35.7,31.3,29.36,NW,315,9.6,12.0,84,0.00,,,0.02,WUHU216HW,2013-02-10 20:54:00,
2013-02-10 14:59:00,35.4,30.7,29.37,WNW,293,7.6,11.4,83,0.00,,,0.02,WUHU216HW,2013-02-10 20:59:00,
2013-02-10 15:04:00,35.2,30.5,29.37,NW,315,9.3,13.6,83,0.00,,,0.02,WUHU216HW,2013-02-10 21:04:00,
2013-02-10 15:09:00,35.0,30.0,29.37,WNW,293,6.0,14.5,82,0.00,,,0.02,WUHU216HW,2013-02-10 21:09:00,
2013-02-10 15:14:00,34.8,29.8,29.38,WNW,293,12.5,12.5,82,0.00,,,0.02,WUHU216HW,2013-02-10 21:14:00,
2013-02-10 15:19:00,34.7,29.4,29.38,NW,315,11.1,12.5,81,0.00,,,0.02,WUHU216HW,2013-02-10 21:19:00,
2013-02-10 15:24:00,34.5,29.2,29.39,NW,315,11.6,11.8,81,0.00,,,0.02,WUHU216HW,2013-02-10 21:24:00,
2013-02-10 15:29:00,34.5,28.9,29.40,NNW,338,12.5,13.1,80,0.00,,,0.02,WUHU216HW,2013-02-10 21:29:00,
2013-02-10 15:34:00,34.5,28.9,29.41,NNW,338,10.7,13.1,80,0.00,,,0.02,WUHU216HW,2013-02-10 21:34:00,
2013-02-10 15:39:00,34.3,28.7,29.41,NNW,338,9.1,12.5,80,0.00,,,0.02,WUHU216HW,2013-02-10 21:39:00,
2013-02-10 15:44:00,34.1,28.5,29.42,WNW,293,8.9,13.6,80,0.00,,,0.02,WUHU216HW,2013-02-10 21:44:00,
2013-02-10 15:49:00,33.9,28.0,29.42,NW,315,11.8,17.0,79,0.00,,,0.02,WUHU216HW,2013-02-10 21:49:00,
2013-02-10 15:54:00,33.6,28.0,29.43,WNW,293,16.3,17.0,80,0.00,,,0.02,WUHU216HW,2013-02-10 21:54:00,
2013-02-10 15:59:00,33.4,28.4,29.44,WNW,293,14.5,16.3,82,0.00,,,0.02,WUHU216HW,2013-02-10 21:59:00,
2013-02-10 16:04:00,33.0,28.4,29.44,NW,315,14.9,16.3,83,0.00,,,0.02,WUHU216HW,2013-02-10 22:04:00,
2013-02-10 16:09:00,32.7,27.5,29.44,NNW,338,12.9,16.5,81,0.00,,,0.02,WUHU216HW,2013-02-10 22:09:00,
2013-02-10 16:14:00,32.9,27.4,29.45,NNW,338,9.1,16.5,80,0.00,,,0.02,WUHU216HW,2013-02-10 22:14:00,
2013-02-10 16:19:00,32.9,27.0,29.46,NW,315,10.2,15.8,79,0.00,,,0.02,WUHU216HW,2013-02-10 22:19:00,
2013-02-10 16:24:00,32.9,26.7,29.46,WNW,293,12.0,17.2,78,0.00,,,0.02,WUHU216HW,2013-02-10 22:24:00,
2013-02-10 16:29:00,32.9,26.7,29.47,NW,315,13.6,17.2,78,0.00,,,0.02,WUHU216HW,2013-02-10 22:29:00,
2013-02-10 16:34:00,32.9,26.7,29.47,WNW,293,15.6,17.0,78,0.00,,,0.02,WUHU216HW,2013-02-10 22:34:00,
2013-02-10 16:39:00,32.7,26.6,29.48,WNW,293,11.1,15.6,78,0.00,,,0.02,WUHU216HW,2013-02-10 22:39:00,
2013-02-10 16:45:00,32.7,26.2,29.48,NNW,338,14.5,15.8,77,0.00,,,0.02,WUHU216HW,2013-02-10 22:45:00,
2013-02-10 16:50:00,32.5,26.1,29.49,NW,315,11.4,15.8,77,0.00,,,0.02,WUHU216HW,2013-02-10 22:50:00,
2013-02-10 16:55:00,32.5,26.1,29.49,NW,315,9.8,14.9,77,0.00,,,0.02,WUHU216HW,2013-02-10 22:55:00,
2013-02-10 17:00:00,32.5,26.1,29.50,NW,315,11.1,14.9,77,0.00,,,0.02,WUHU216HW,2013-02-10 23:00:00,
2013-02-10 17:05:00,32.5,25.7,29.51,WNW,293,12.7,19.4,76,0.00,,,0.02,WUHU216HW,2013-02-10 23:05:00,
2013-02-10 17:10:00,32.5,26.1,29.51,WNW,293,10.5,19.4,77,0.00,,,0.02,WUHU216HW,2013-02-10 23:10:00,
2013-02-10 17:15:00,32.3,25.6,29.52,NW,315,9.8,13.6,76,0.00,,,0.02,WUHU216HW,2013-02-10 23:15:00,
2013-02-10 17:20:00,32.3,25.6,29.52,NNW,338,10.5,17.0,76,0.00,,,0.02,WUHU216HW,2013-02-10 23:20:00,
2013-02-10 17:25:00,32.1,25.4,29.53,WNW,293,8.2,17.0,76,0.00,,,0.02,WUHU216HW,2013-02-10 23:25:00,
2013-02-10 17:30:00,32.0,25.3,29.53,WNW,293,14.3,14.3,76,0.00,,,0.02,WUHU216HW,2013-02-10 23:30:00,
2013-02-10 17:35:00,31.8,25.4,29.54,WNW,293,12.9,14.9,77,0.00,,,0.02,WUHU216HW,2013-02-10 23:35:00,
2013-02-10 17:40:00,31.6,24.9,29.54,NW,315,11.1,14.9,76,0.00,,,0.02,WUHU216HW,2013-02-10 23:40:00,
2013-02-10 17:45:00,31.6,24.9,29.55,NW,315,15.2,15.6,76,0.00,,,0.02,WUHU216HW,2013-02-10 23:45:00,
2013-02-10 17:50:00,31.4,24.7,29.55,NNW,338,11.6,15.6,76,0.00,,,0.02,WUHU216HW,2013-02-10 23:50:00,
2013-02-10 17:55:00,31.2,24.5,29.55,NW,315,11.1,14.7,76,0.00,,,0.02,WUHU216HW,2013-02-10 23:55:00,
2013-02-10 18:00:00,31.2,24.9,29.56,NNW,338,10.7,14.7,77,0.00,,,0.02,WUHU216HW,2013-02-11 00:00:00,
2013-02-10 18:05:00,31.1,24.4,29.56,NW,315,12.9,14.0,76,0.00,,,0.02,WUHU216HW,2013-02-11 00:05:00,
2013-02-10 18:10:00,31.1,24.4,29.57,WNW,293,13.1,13.6,76,0.00,,,0.02,WUHU216HW,2013-02-11 00:10:00,
2013-02-10 18:15:00,30.9,24.2,29.57,WNW,293,8.9,14.7,76,0.00,,,0.02,WUHU216HW,2013-02-11 00:15:00,
2013-02-10 18:20:00,30.9,24.2,29.58,NNW,338,11.4,14.7,76,0.00,,,0.02,WUHU216HW,2013-02-11 00:20:00,
2013-02-10 18:25:00,30.9,23.9,29.58,NW,315,7.6,13.8,75,0.00,,,0.02,WUHU216HW,2013-02-11 00:25:00,
2013-02-10 18:30:00,30.9,23.9,29.59,NW,315,8.0,13.8,75,0.00,,,0.02,WUHU216HW,2013-02-11 00:30:00,
2013-02-10 18:35:00,30.9,24.2,29.60,North,0,10.5,13.8,76,0.00,,,0.02,WUHU216HW,2013-02-11 00:35:00,
2013-02-10 18:40:00,30.7,23.7,29.60,NNW,338,9.3,13.8,75,0.00,,,0.02,WUHU216HW,2013-02-11 00:40:00,
2013-02-10 18:45:00,30.7,24.0,29.60,WNW,293,8.5,13.8,76,0.00,,,0.02,WUHU216HW,2013-02-11 00:45:00,
2013-02-10 18:50:00,30.5,23.5,29.61,WNW,293,11.4,16.1,75,0.00,,,0.02,WUHU216HW,2013-02-11 00:50:00,
2013-02-10 18:55:00,30.5,23.8,29.62,WNW,293,8.9,16.1,76,0.00,,,0.02,WUHU216HW,2013-02-11 00:55:00,
2013-02-10 19:00:00,30.3,23.3,29.62,NW,315,12.0,14.7,75,0.00,,,0.02,WUHU216HW,2013-02-11 01:00:00,
2013-02-10 19:05:00,30.3,23.6,29.62,NW,315,9.1,16.1,76,0.00,,,0.02,WUHU216HW,2013-02-11 01:05:00,
2013-02-10 19:10:00,30.3,23.3,29.62,NNW,338,12.5,16.1,75,0.00,,,0.02,WUHU216HW,2013-02-11 01:10:00,
2013-02-10 19:15:00,30.5,23.5,29.63,NW,315,13.4,15.6,75,0.00,,,0.02,WUHU216HW,2013-02-11 01:15:00,
2013-02-10 19:20:00,30.5,23.5,29.62,WNW,293,10.9,14.9,75,0.00,,,0.02,WUHU216HW,2013-02-11 01:20:00,
2013-02-10 19:25:00,30.5,23.8,29.63,NNW,338,13.1,15.2,76,0.00,,,0.02,WUHU216HW,2013-02-11 01:25:00,
2013-02-10 19:30:00,30.5,23.8,29.63,NW,315,9.1,15.4,76,0.00,,,0.02,WUHU216HW,2013-02-11 01:30:00,
2013-02-10 19:35:00,30.7,24.0,29.64,WNW,293,9.3,16.5,76,0.00,,,0.02,WUHU216HW,2013-02-11 01:35:00,
2013-02-10 19:40:00,30.5,23.8,29.64,NW,315,8.9,16.5,76,0.00,,,0.02,WUHU216HW,2013-02-11 01:40:00,
2013-02-10 19:45:00,30.7,24.3,29.64,West,270,10.0,15.6,77,0.00,,,0.02,WUHU216HW,2013-02-11 01:45:00,
2013-02-10 19:50:00,30.5,23.8,29.64,WNW,293,15.2,15.2,76,0.00,,,0.02,WUHU216HW,2013-02-11 01:50:00,
2013-02-10 19:55:00,30.7,24.0,29.65,NW,315,10.9,15.6,76,0.00,,,0.02,WUHU216HW,2013-02-11 01:55:00,
2013-02-10 20:00:00,30.7,24.0,29.65,NW,315,14.0,15.6,76,0.00,,,0.02,WUHU216HW,2013-02-11 02:00:00,
2013-02-10 20:05:00,30.7,24.3,29.65,NW,315,9.6,15.2,77,0.00,,,0.02,WUHU216HW,2013-02-11 02:05:00,
2013-02-10 20:10:00,30.7,24.3,29.66,NW,315,11.6,15.2,77,0.00,,,0.02,WUHU216HW,2013-02-11 02:10:00,
2013-02-10 20:15:00,30.7,24.0,29.66,NW,315,8.5,13.1,76,0.00,,,0.02,WUHU216HW,2013-02-11 02:15:00,
2013-02-10 20:20:00,30.7,24.0,29.67,NNW,338,12.0,13.8,76,0.00,,,0.02,WUHU216HW,2013-02-11 02:20:00,
2013-02-10 20:25:00,30.5,23.5,29.67,WNW,293,13.4,13.8,75,0.00,,,0.02,WUHU216HW,2013-02-11 02:25:00,
2013-02-10 20:30:00,30.5,23.5,29.67,NNW,338,8.9,15.6,75,0.00,,,0.02,WUHU216HW,2013-02-11 02:30:00,
2013-02-10 20:35:00,30.5,23.5,29.68,WNW,293,10.5,15.6,75,0.00,,,0.02,WUHU216HW,2013-02-11 02:35:00,
2013-02-10 20:40:00,30.5,23.5,29.69,WNW,293,8.5,14.0,75,0.00,,,0.02,WUHU216HW,2013-02-11 02:40:00,
2013-02-10 20:45:00,30.3,23.3,29.69,NW,315,12.3,14.0,75,0.00,,,0.02,WUHU216HW,2013-02-11 02:45:00,
2013-02-10 20:50:00,30.0,23.0,29.69,WNW,293,12.7,12.7,75,0.00,,,0.02,WUHU216HW,2013-02-11 02:50:00,
2013-02-10 20:55:00,30.0,23.3,29.69,NW,315,8.7,16.7,76,0.00,,,0.02,WUHU216HW,2013-02-11 02:55:00,
2013-02-10 21:00:00,30.0,23.6,29.69,NW,315,8.9,16.7,77,0.00,,,0.02,WUHU216HW,2013-02-11 03:00:00,
2013-02-10 21:05:00,30.2,23.8,29.69,NNW,338,9.1,10.5,77,0.00,,,0.02,WUHU216HW,2013-02-11 03:05:00,
2013-02-10 21:10:00,30.3,24.3,29.70,WNW,293,9.1,10.5,78,0.00,,,0.02,WUHU216HW,2013-02-11 03:10:00,
2013-02-10 21:15:00,30.3,24.0,29.70,NW,315,7.3,12.9,77,0.00,,,0.02,WUHU216HW,2013-02-11 03:15:00,
2013-02-10 21:20:00,30.3,24.0,29.70,NW,315,7.1,13.6,78,0.00,,,0.02,WUHU216HW,2013-02-11 03:20:00,
2013-02-10 21:25:00,30.0,23.9,29.70,NW,315,9.6,13.6,78,0.00,,,0.02,WUHU216HW,2013-02-11 03:25:00,
2013-02-10 21:30:00,30.0,23.9,29.71,WNW,293,9.3,12.7,78,0.00,,,0.02,WUHU216HW,2013-02-11 03:30:00,
2013-02-10 21:35:00,30.0,23.9,29.71,NNW,338,12.3,14.9,78,0.00,,,0.02,WUHU216HW,2013-02-11 03:35:00,
2013-02-10 21:40:00,30.0,23.9,29.72,NNE,23,8.7,14.9,78,0.00,,,0.02,WUHU216HW,2013-02-11 03:40:00,
2013-02-10 21:45:00,30.0,23.9,29.72,WNW,293,9.6,14.0,78,0.00,,,0.02,WUHU216HW,2013-02-11 03:45:00,
2013-02-10 21:50:00,30.0,24.2,29.73,WNW,293,9.1,14.0,79,0.00,,,0.02,WUHU216HW,2013-02-11 03:50:00,
2013-02-10 21:55:00,30.0,24.2,29.74,NW,315,9.1,12.7,79,0.00,,,0.02,WUHU216HW,2013-02-11 03:55:00,
2013-02-10 22:00:00,30.0,24.2,29.74,WNW,293,8.5,12.7,79,0.00,,,0.02,WUHU216HW,2013-02-11 04:00:00,
2013-02-10 22:05:00,30.0,24.2,29.74,NW,315,10.2,11.6,79,0.00,,,0.02,WUHU216HW,2013-02-11 04:05:00,
2013-02-10 22:10:00,30.0,24.2,29.75,NNW,338,10.9,11.4,79,0.00,,,0.02,WUHU216HW,2013-02-11 04:10:00,
2013-02-10 22:15:00,30.3,24.3,29.75,NW,315,7.8,13.8,78,0.00,,,0.02,WUHU216HW,2013-02-11 04:15:00,
2013-02-10 22:20:00,30.3,24.0,29.76,NW,315,13.1,14.0,77,0.00,,,0.02,WUHU216HW,2013-02-11 04:20:00,
2013-02-10 22:25:00,30.3,24.0,29.77,WNW,293,11.8,14.0,77,0.00,,,0.02,WUHU216HW,2013-02-11 04:25:00,
2013-02-10 22:30:00,30.3,23.6,29.77,North,0,7.8,13.1,76,0.00,,,0.02,WUHU216HW,2013-02-11 04:30:00,
2013-02-10 22:35:00,30.2,23.5,29.77,NNW,338,9.6,11.4,76,0.00,,,0.02,WUHU216HW,2013-02-11 04:35:00,
2013-02-10 22:40:00,30.0,23.3,29.78,WNW,293,10.2,12.0,76,0.00,,,0.02,WUHU216HW,2013-02-11 04:40:00,
2013-02-10 22:45:00,30.2,23.5,29.78,North,0,9.8,12.0,76,0.00,,,0.02,WUHU216HW,2013-02-11 04:45:00,
2013-02-10 22:50:00,30.0,23.3,29.78,NNW,338,11.6,14.0,76,0.00,,,0.02,WUHU216HW,2013-02-11 04:50:00,
2013-02-10 22:55:00,30.0,23.3,29.79,NW,315,12.3,14.0,76,0.00,,,0.02,WUHU216HW,2013-02-11 04:55:00,
2013-02-10 23:00:00,30.0,23.3,29.79,NW,315,9.3,12.3,76,0.00,,,0.02,WUHU216HW,2013-02-11 05:00:00,
2013-02-10 23:05:00,30.0,23.3,29.79,NW,315,9.3,12.3,76,0.00,,,0.02,WUHU216HW,2013-02-11 05:05:00,
2013-02-10 23:10:00,30.0,23.6,29.80,NNW,338,6.2,12.0,77,0.00,,,0.02,WUHU216HW,2013-02-11 05:10:00,
2013-02-10 23:15:00,30.0,23.6,29.80,North,0,8.0,12.0,77,0.00,,,0.02,WUHU216HW,2013-02-11 05:15:00,
2013-02-10 23:20:00,30.0,23.6,29.80,NW,315,8.9,10.9,77,0.00,,,0.02,WUHU216HW,2013-02-11 05:20:00,
2013-02-10 23:25:00,30.3,24.3,29.81,NW,315,9.6,10.9,78,0.00,,,0.02,WUHU216HW,2013-02-11 05:25:00,
2013-02-10 23:30:00,30.3,24.3,29.81,NW,315,8.9,10.9,78,0.00,,,0.02,WUHU216HW,2013-02-11 05:30:00,
2013-02-10 23:35:00,30.3,24.3,29.81,NW,315,7.6,11.6,78,0.00,,,0.02,WUHU216HW,2013-02-11 05:35:00,
2013-02-10 23:40:00,30.3,24.3,29.81,NW,315,10.0,12.7,78,0.00,,,0.02,WUHU216HW,2013-02-11 05:40:00,
2013-02-10 23:45:00,30.3,24.3,29.81,WNW,293,7.6,12.7,78,0.00,,,0.02,WUHU216HW,2013-02-11 05:45:00,
2013-02-10 23:50:00,30.3,24.6,29.82,NNW,338,6.4,8.9,79,0.00,,,0.02,WUHU216HW,2013-02-11 05:50:00,
2013-02-10 23:55:00,30.3,24.6,29.82,NW,315,7.6,8.9,79,0.00,,,0.02,WUHU216HW,2013-02-11 05:55:00,